Time;durP1;ratioP1;P1;durP2;ratioP2;P2;SDS_P1;SDS_P2;PMS_P1;PMS_P2;Temp;Humidity;BMP_temperature;BMP_pressure;BME280_temperature;BME280_humidity;BME280_pressure;Samples;Min_cycle;Max_cycle;Signal;HPM_P1;HPM_P2
2022/03/08 12:19:54;;;;;;;2.65;2.28;;;15.20;67.90;;;;;;2290736;62;30255;-77
2022/03/08 12:22:23;;;;;;;2.50;1.90;;;15.20;66.50;;;;;;2277952;62;30038;-76
2022/03/08 12:24:52;;;;;;;3.50;2.05;;;15.20;67.50;;;;;;2286166;62;30009;-75
2022/03/08 12:27:19;;;;;;;2.58;1.92;;;15.20;68.50;;;;;;2285931;62;33420;-76
2022/03/08 12:29:55;;;;;;;1.98;1.88;;;15.30;69.10;;;;;;2282049;62;30553;-76
2022/03/08 12:32:25;;;;;;;2.13;1.83;;;15.30;69.50;;;;;;2274421;62;30178;-76
2022/03/08 12:34:56;;;;;;;3.78;1.77;;;15.40;69.80;;;;;;2274554;62;30212;-78
2022/03/08 12:37:43;;;;;;;2.67;1.90;;;15.40;69.90;;;;;;2278361;62;30885;-77
2022/03/08 12:40:20;;;;;;;3.42;1.70;;;15.40;69.20;;;;;;2289705;62;31062;-76
2022/03/08 12:42:55;;;;;;;1.92;1.83;;;15.50;70.20;;;;;;2286608;62;30109;-78
2022/03/08 12:45:28;;;;;;;1.75;1.65;;;15.50;69.70;;;;;;2276273;62;30134;-77
2022/03/08 12:48:00;;;;;;;2.03;1.80;;;15.60;70.00;;;;;;2282895;62;31777;-77
2022/03/08 12:50:30;;;;;;;1.83;1.70;;;15.60;69.60;;;;;;2289916;62;30666;-77
2022/03/08 12:52:58;;;;;;;1.70;1.60;;;15.70;69.60;;;;;;2282448;62;30250;-78
2022/03/08 12:55:45;;;;;;;1.88;1.73;;;15.80;69.80;;;;;;2282554;62;30170;-78
2022/03/08 12:58:16;;;;;;;1.88;1.70;;;15.80;69.60;;;;;;2282085;62;30362;-72
2022/03/08 13:00:53;;;;;;;2.05;1.60;;;15.80;69.30;;;;;;2273737;62;30865;-75
2022/03/08 13:03:21;;;;;;;2.00;1.58;;;15.90;69.30;;;;;;2286287;62;30908;-74
2022/03/08 13:05:51;;;;;;;1.70;1.60;;;16.00;69.30;;;;;;2288938;62;30382;-74
2022/03/08 13:08:18;;;;;;;2.05;1.77;;;16.00;68.90;;;;;;2281767;62;29994;-74
2022/03/08 13:11:00;;;;;;;1.63;1.52;;;16.10;69.00;;;;;;2281789;62;30803;-74
2022/03/08 13:13:26;;;;;;;2.53;1.63;;;16.20;68.00;;;;;;2277002;62;30256;-74
2022/03/08 13:15:52;;;;;;;1.88;1.73;;;16.20;68.70;;;;;;2267040;62;30507;-74
2022/03/08 13:18:22;;;;;;;1.65;1.55;;;16.20;68.60;;;;;;2281479;62;30172;-74
2022/03/08 13:20:49;;;;;;;1.50;1.40;;;16.30;67.90;;;;;;2273911;62;30815;-74
2022/03/08 13:23:27;;;;;;;1.40;1.35;;;16.40;67.90;;;;;;2281510;62;30131;-74
2022/03/08 13:25:54;;;;;;;2.00;1.90;;;16.40;66.60;;;;;;2274326;62;30923;-74
2022/03/08 13:28:24;;;;;;;2.92;1.70;;;16.40;67.50;;;;;;2273835;62;30529;-74
2022/03/08 13:30:52;;;;;;;1.73;1.50;;;16.40;67.20;;;;;;2276314;62;31091;-74
2022/03/08 13:33:23;;;;;;;2.13;1.50;;;16.50;67.00;;;;;;2273555;62;30285;-74
2022/03/08 13:35:57;;;;;;;1.73;1.63;;;16.50;66.40;;;;;;2278239;62;30996;-74
2022/03/08 13:38:26;;;;;;;1.48;1.38;;;16.60;66.60;;;;;;2275974;62;31124;-74
2022/03/08 13:40:52;;;;;;;1.70;1.60;;;16.60;66.60;;;;;;2264215;62;31997;-74
2022/03/08 13:43:19;;;;;;;1.80;1.70;;;16.70;66.60;;;;;;2276644;62;30505;-73
2022/03/08 13:45:45;;;;;;;1.80;1.70;;;16.70;66.50;;;;;;2276425;62;30256;-74
2022/03/08 13:48:12;;;;;;;2.00;1.90;;;16.80;66.50;;;;;;2275817;62;30072;-75
2022/03/08 13:50:38;;;;;;;2.05;1.85;;;16.90;66.10;;;;;;2274554;62;30701;-77
2022/03/08 13:53:13;;;;;;;1.50;1.40;;;16.90;66.00;;;;;;2276940;62;30188;-79
2022/03/08 13:55:39;;;;;;;5.15;1.95;;;17.00;64.90;;;;;;2284088;62;30196;-85
2022/03/08 13:58:06;;;;;;;1.73;1.55;;;17.20;65.70;;;;;;2269506;62;30072;-83
2022/03/08 14:00:36;;;;;;;1.90;1.80;;;17.80;65.50;;;;;;2268560;62;30596;-76
2022/03/08 14:03:05;;;;;;;2.58;1.80;;;19.00;62.80;;;;;;2276321;62;30035;-79
2022/03/08 14:06:00;;;;;;;4.13;2.03;;;20.40;59.50;;;;;;2277938;62;30136;-78
2022/03/08 14:08:33;;;;;;;3.03;1.90;;;21.50;54.70;;;;;;2280628;62;30266;-76
2022/03/08 14:10:59;;;;;;;4.30;1.90;;;22.20;55.00;;;;;;2277687;62;30422;-79
2022/03/08 14:13:25;;;;;;;3.75;1.88;;;22.10;54.90;;;;;;2285225;62;30108;-80
2022/03/08 14:15:56;;;;;;;1.95;1.85;;;22.10;55.30;;;;;;2277176;62;30305;-79
2022/03/08 14:18:22;;;;;;;1.83;1.73;;;22.20;55.70;;;;;;2276551;62;30276;-79
2022/03/08 14:20:48;;;;;;;1.95;1.83;;;22.20;55.90;;;;;;2270003;62;30002;-80
2022/03/08 14:23:14;;;;;;;1.60;1.50;;;22.20;56.20;;;;;;2268932;62;30732;-80
2022/03/08 14:26:00;;;;;;;1.92;1.77;;;22.60;55.90;;;;;;2276035;62;30257;-79
2022/03/08 14:29:09;;;;;;;2.33;1.60;;;23.10;50.30;;;;;;2276201;62;30844;-79
2022/03/08 14:31:35;;;;;;;1.83;1.70;;;23.70;48.90;;;;;;2258579;63;30426;-79
2022/03/08 14:34:03;;;;;;;1.80;1.70;;;24.20;52.30;;;;;;2274377;62;29881;-80
2022/03/08 14:36:35;;;;;;;2.00;1.75;;;24.70;51.10;;;;;;2277826;62;30189;-79
2022/03/08 14:39:13;;;;;;;3.38;1.40;;;25.20;47.30;;;;;;2285058;62;30974;-79
2022/03/08 14:41:39;;;;;;;1.95;1.23;;;25.60;48.50;;;;;;2271277;62;30301;-80
2022/03/08 14:44:05;;;;;;;1.75;1.65;;;26.00;47.40;;;;;;2285240;62;30680;-78
2022/03/08 14:46:31;;;;;;;1.58;1.48;;;26.30;46.60;;;;;;2285036;62;30117;-79
2022/03/08 14:49:11;;;;;;;1.65;1.52;;;26.60;45.90;;;;;;2285053;62;30023;-78
2022/03/08 14:51:37;;;;;;;1.83;1.70;;;26.70;41.40;;;;;;2277511;62;30272;-78
2022/03/08 14:54:03;;;;;;;1.60;1.50;;;26.80;44.80;;;;;;2284820;62;30158;-78
2022/03/08 14:56:29;;;;;;;1.85;1.30;;;26.70;44.40;;;;;;2285102;62;30153;-78
2022/03/08 14:58:55;;;;;;;1.27;1.17;;;26.30;44.40;;;;;;2285037;62;30012;-78
2022/03/08 15:01:21;;;;;;;2.35;1.50;;;26.10;44.80;;;;;;2284942;62;30020;-78
2022/03/08 15:03:47;;;;;;;1.52;1.42;;;26.30;44.30;;;;;;2284702;62;30212;-78
2022/03/08 15:06:13;;;;;;;1.70;1.60;;;26.30;44.30;;;;;;2277618;62;30254;-79
2022/03/08 15:08:39;;;;;;;1.58;1.20;;;26.40;44.10;;;;;;2284855;62;29950;-79
2022/03/08 15:11:06;;;;;;;1.90;1.60;;;26.50;43.80;;;;;;2277659;62;30307;-78
2022/03/08 15:13:32;;;;;;;1.70;1.60;;;26.30;43.50;;;;;;2278094;62;30097;-78
2022/03/08 15:15:58;;;;;;;1.63;1.52;;;25.90;43.80;;;;;;2276783;62;30154;-78
2022/03/08 15:18:24;;;;;;;1.35;1.33;;;25.30;44.30;;;;;;2276589;62;31095;-78
2022/03/08 15:20:50;;;;;;;1.15;1.10;;;25.00;45.00;;;;;;2275937;62;30061;-78
2022/03/08 15:23:16;;;;;;;1.40;1.27;;;25.30;45.00;;;;;;2276123;62;30017;-78
2022/03/08 15:25:43;;;;;;;1.50;1.40;;;25.70;44.30;;;;;;2276171;62;30198;-78
2022/03/08 15:28:09;;;;;;;1.33;1.23;;;26.00;43.60;;;;;;2276388;62;32073;-77
2022/03/08 15:30:35;;;;;;;1.40;1.10;;;26.30;43.10;;;;;;2276059;62;30167;-77
2022/03/08 15:33:01;;;;;;;1.52;1.42;;;26.50;42.70;;;;;;2275921;62;30336;-77
2022/03/08 15:35:27;;;;;;;1.60;1.00;;;26.70;42.40;;;;;;2275907;62;30234;-77
2022/03/08 15:37:53;;;;;;;1.75;1.30;;;26.70;42.00;;;;;;2276080;62;30236;-77
2022/03/08 15:40:18;;;;;;;1.45;1.35;;;26.80;41.80;;;;;;2276582;62;30768;-77
2022/03/08 15:42:44;;;;;;;1.20;1.20;;;26.80;41.60;;;;;;2275795;62;30044;-77
2022/03/08 15:45:11;;;;;;;1.08;1.08;;;26.80;41.50;;;;;;2276015;62;29981;-77
2022/03/08 15:47:38;;;;;;;1.00;1.00;;;26.80;41.40;;;;;;2276606;62;30240;-77
2022/03/08 15:50:06;;;;;;;1.30;1.00;;;26.70;41.30;;;;;;2275793;62;30261;-77
2022/03/08 15:52:32;;;;;;;1.05;1.05;;;26.50;41.20;;;;;;2277130;62;30110;-77
2022/03/08 15:54:58;;;;;;;0.90;0.90;;;26.40;41.40;;;;;;2284764;62;30149;-77
2022/03/08 15:57:23;;;;;;;1.10;1.10;;;26.20;41.50;;;;;;2284521;62;30220;-77
2022/03/08 15:59:49;;;;;;;0.90;0.90;;;26.00;41.60;;;;;;2284640;62;30545;-77
2022/03/08 16:02:16;;;;;;;1.10;1.10;;;25.80;41.80;;;;;;2284805;62;30098;-77
2022/03/08 16:04:42;;;;;;;1.00;1.00;;;25.60;42.10;;;;;;2270318;62;30305;-77
2022/03/08 16:07:11;;;;;;;1.15;1.15;;;25.20;42.60;;;;;;2277200;62;30849;-77
2022/03/08 16:09:37;;;;;;;1.10;1.00;;;24.80;43.10;;;;;;2284386;62;30346;-77
2022/03/08 16:12:04;;;;;;;1.30;1.10;;;24.30;43.90;;;;;;2277363;62;30146;-77
2022/03/08 16:14:30;;;;;;;1.10;1.10;;;23.80;44.70;;;;;;2277273;62;30346;-77
2022/03/08 16:16:56;;;;;;;1.30;1.27;;;23.30;45.60;;;;;;2284415;62;30045;-77
2022/03/08 16:19:22;;;;;;;1.00;1.00;;;22.90;46.40;;;;;;2284093;62;30240;-77
2022/03/08 16:21:48;;;;;;;0.90;0.90;;;22.40;47.20;;;;;;2277185;62;30184;-77
2022/03/08 16:24:14;;;;;;;1.63;0.95;;;22.00;47.90;;;;;;2270189;62;30220;-77
2022/03/08 16:26:42;;;;;;;1.17;1.02;;;21.70;48.60;;;;;;2284574;62;31181;-77
2022/03/08 16:29:08;;;;;;;0.90;0.90;;;21.40;49.20;;;;;;2284510;62;30767;-77
2022/03/08 16:31:34;;;;;;;1.10;1.10;;;21.10;49.60;;;;;;2284329;62;30235;-77
2022/03/08 16:34:00;;;;;;;1.00;1.00;;;20.90;49.90;;;;;;2284600;62;30480;-78
2022/03/08 16:36:26;;;;;;;0.88;0.82;;;20.80;50.00;;;;;;2284560;62;30261;-77
2022/03/08 16:38:52;;;;;;;1.40;0.80;;;20.70;50.00;;;;;;2276884;62;30436;-77
2022/03/08 16:41:17;;;;;;;1.00;1.00;;;20.50;50.10;;;;;;2284552;62;30276;-77
2022/03/08 16:43:43;;;;;;;1.13;1.05;;;20.30;50.40;;;;;;2284575;62;30059;-76
2022/03/08 16:46:09;;;;;;;0.80;0.77;;;20.00;50.70;;;;;;2284174;62;30995;-76
2022/03/08 16:48:35;;;;;;;0.68;0.68;;;19.80;51.10;;;;;;2281479;62;30064;-76
2022/03/08 16:51:01;;;;;;;1.10;1.00;;;19.60;51.50;;;;;;2276867;62;30112;-76
2022/03/08 16:53:27;;;;;;;1.05;1.05;;;19.40;51.90;;;;;;2284273;62;30039;-77
2022/03/08 16:55:53;;;;;;;0.90;0.90;;;19.30;52.20;;;;;;2276925;62;30830;-76
2022/03/08 16:58:19;;;;;;;0.80;0.80;;;19.10;52.50;;;;;;2270115;62;30469;-76
2022/03/08 17:00:45;;;;;;;1.17;1.08;;;18.90;52.80;;;;;;2284175;62;30164;-76
2022/03/08 17:03:12;;;;;;;0.68;0.68;;;18.80;53.10;;;;;;2276700;62;30122;-76
2022/03/08 17:05:38;;;;;;;0.82;0.82;;;18.60;53.40;;;;;;2284947;62;30371;-76
2022/03/08 17:08:03;;;;;;;2.78;1.10;;;18.60;53.70;;;;;;2285293;62;30089;-74
2022/03/08 17:10:30;;;;;;;1.77;1.17;;;18.40;53.70;;;;;;2278159;62;30870;-73
2022/03/08 17:12:56;;;;;;;1.17;1.08;;;18.30;54.00;;;;;;2285344;62;30285;-74
2022/03/08 17:15:22;;;;;;;1.30;1.20;;;18.20;54.30;;;;;;2285465;62;30860;-74
2022/03/08 17:17:47;;;;;;;0.70;0.63;;;18.10;54.30;;;;;;2273816;62;30587;-71
2022/03/08 17:20:14;;;;;;;0.77;0.77;;;18.00;54.60;;;;;;2283554;62;30283;-72
2022/03/08 17:22:40;;;;;;;2.03;1.05;;;17.90;55.00;;;;;;2277244;62;30235;-71
2022/03/08 17:25:07;;;;;;;1.10;0.98;;;17.80;55.30;;;;;;2277231;62;30757;-71
2022/03/08 17:27:34;;;;;;;0.95;0.90;;;17.80;55.40;;;;;;2269614;62;30374;-70
2022/03/08 17:30:00;;;;;;;0.50;0.50;;;17.70;55.60;;;;;;2269826;62;30412;-71
2022/03/08 17:32:26;;;;;;;1.17;0.90;;;17.70;55.90;;;;;;2269984;62;30039;-71
2022/03/08 17:34:52;;;;;;;1.05;0.80;;;17.60;56.00;;;;;;2277034;62;30803;-71
2022/03/08 17:37:18;;;;;;;0.93;0.82;;;17.50;56.20;;;;;;2263117;62;30721;-70
2022/03/08 17:39:44;;;;;;;0.77;0.77;;;17.50;56.40;;;;;;2276527;62;30146;-69
2022/03/08 17:42:10;;;;;;;0.93;0.93;;;17.40;56.50;;;;;;2276225;62;30133;-69
2022/03/08 17:44:36;;;;;;;2.33;0.85;;;17.40;56.60;;;;;;2279532;62;30094;-69
2022/03/08 17:47:02;;;;;;;1.10;1.10;;;17.40;56.90;;;;;;2269735;62;30124;-70
2022/03/08 17:49:28;;;;;;;0.90;0.90;;;17.30;57.10;;;;;;2269609;62;30311;-72
2022/03/08 17:51:54;;;;;;;4.32;1.00;;;17.30;57.10;;;;;;2277145;62;30042;-73
2022/03/08 17:54:21;;;;;;;0.75;0.75;;;17.30;57.40;;;;;;2267088;62;30405;-72
2022/03/08 17:56:47;;;;;;;0.60;0.60;;;17.20;57.50;;;;;;2272071;62;30736;-72
2022/03/08 17:59:12;;;;;;;1.00;0.93;;;17.20;57.70;;;;;;2275579;62;31005;-72
2022/03/08 18:01:38;;;;;;;0.70;0.70;;;17.20;57.80;;;;;;2275697;62;30215;-73
2022/03/08 18:04:04;;;;;;;1.73;1.17;;;17.20;57.90;;;;;;2275616;62;30777;-73
2022/03/08 18:06:30;;;;;;;1.70;1.23;;;17.20;58.10;;;;;;2275503;62;30205;-73
2022/03/08 18:08:56;;;;;;;2.08;1.02;;;17.20;58.30;;;;;;2275756;62;30559;-72
2022/03/08 18:11:22;;;;;;;1.83;1.00;;;17.10;58.30;;;;;;2265991;62;30225;-73
2022/03/08 18:13:48;;;;;;;2.28;1.00;;;17.10;58.40;;;;;;2269734;62;30331;-73
2022/03/08 18:16:15;;;;;;;1.95;1.17;;;17.10;58.50;;;;;;2269211;62;30126;-72
2022/03/08 18:18:41;;;;;;;2.58;1.10;;;17.00;58.70;;;;;;2274946;62;30254;-72
2022/03/08 18:21:09;;;;;;;1.48;1.38;;;17.00;58.90;;;;;;2272229;62;29997;-72
2022/03/08 18:23:35;;;;;;;2.25;1.35;;;17.00;59.00;;;;;;2267348;62;30362;-72
2022/03/08 18:26:03;;;;;;;1.42;1.33;;;17.00;59.20;;;;;;2266876;62;30054;-73
2022/03/08 18:28:30;;;;;;;2.78;1.70;;;16.90;59.40;;;;;;2273888;62;30282;-73
2022/03/08 18:30:56;;;;;;;2.15;1.75;;;16.90;59.50;;;;;;2275100;62;30081;-72
2022/03/08 18:33:22;;;;;;;2.13;1.92;;;16.90;59.70;;;;;;2271729;62;30842;-73
2022/03/08 18:35:48;;;;;;;2.08;1.90;;;16.90;59.80;;;;;;2266522;62;30069;-73
2022/03/08 18:38:14;;;;;;;2.17;1.85;;;16.90;60.00;;;;;;2266677;62;30493;-73
2022/03/08 18:40:40;;;;;;;2.22;1.70;;;16.90;60.00;;;;;;2266910;62;30278;-73
2022/03/08 18:43:06;;;;;;;1.75;1.65;;;16.80;60.20;;;;;;2263110;62;30217;-72
2022/03/08 18:45:32;;;;;;;3.33;2.15;;;16.80;60.30;;;;;;2266758;62;30508;-72
2022/03/08 18:47:58;;;;;;;2.10;1.80;;;16.80;60.40;;;;;;2267363;62;30071;-73
2022/03/08 18:50:25;;;;;;;4.65;2.10;;;16.90;60.50;;;;;;2266687;62;30147;-70
2022/03/08 18:52:52;;;;;;;2.00;1.63;;;16.90;60.80;;;;;;2266247;62;30959;-70
2022/03/08 18:55:18;;;;;;;1.58;1.48;;;16.90;60.70;;;;;;2266418;62;30632;-72
2022/03/08 18:57:45;;;;;;;2.47;1.42;;;17.00;60.90;;;;;;2266721;62;30082;-72
2022/03/08 19:00:13;;;;;;;2.85;1.60;;;17.00;60.80;;;;;;2266604;62;30167;-72
2022/03/08 19:02:39;;;;;;;1.98;1.20;;;17.10;60.90;;;;;;2266717;62;31075;-72
2022/03/08 19:05:05;;;;;;;1.40;1.30;;;17.20;60.80;;;;;;2266493;62;30689;-72
2022/03/08 19:07:31;;;;;;;8.63;2.00;;;17.30;60.80;;;;;;2265646;62;30051;-72
2022/03/08 19:09:57;;;;;;;1.40;1.10;;;17.30;60.80;;;;;;2266186;62;30099;-73
2022/03/08 19:12:23;;;;;;;1.50;1.40;;;17.40;60.70;;;;;;2262258;62;30843;-73
2022/03/08 19:14:49;;;;;;;1.58;1.02;;;17.40;60.70;;;;;;2265870;62;31023;-73
2022/03/08 19:17:15;;;;;;;2.88;1.00;;;17.40;60.70;;;;;;2266026;62;30471;-73
2022/03/08 19:19:41;;;;;;;1.25;1.17;;;17.40;60.70;;;;;;2276184;62;30474;-72
2022/03/08 19:22:07;;;;;;;1.10;1.10;;;17.40;60.60;;;;;;2269641;62;30636;-71
2022/03/08 19:24:33;;;;;;;0.98;0.90;;;17.50;60.80;;;;;;2276448;62;30450;-71
2022/03/08 19:26:59;;;;;;;0.82;0.80;;;17.50;60.60;;;;;;2266733;62;30739;-70
2022/03/08 19:29:26;;;;;;;1.30;0.98;;;17.50;60.70;;;;;;2274491;62;30568;-70
2022/03/08 19:31:52;;;;;;;1.17;1.00;;;17.50;60.60;;;;;;2275115;62;30112;-70
2022/03/08 19:34:18;;;;;;;0.95;0.90;;;17.50;60.70;;;;;;2274882;62;30445;-71
2022/03/08 19:36:44;;;;;;;0.95;0.95;;;17.50;60.70;;;;;;2268884;62;30465;-69
2022/03/08 19:39:11;;;;;;;1.05;1.00;;;17.60;60.60;;;;;;2283108;62;30457;-70
2022/03/08 19:41:37;;;;;;;1.40;1.30;;;17.60;60.70;;;;;;2268614;62;32353;-71
2022/03/08 19:44:04;;;;;;;1.95;0.90;;;17.60;60.60;;;;;;2282912;62;32292;-71
2022/03/08 19:46:30;;;;;;;1.20;1.10;;;17.60;60.60;;;;;;2275680;62;30354;-72
2022/03/08 19:48:55;;;;;;;1.17;1.15;;;17.60;60.70;;;;;;2282906;62;29942;-71
2022/03/08 19:51:22;;;;;;;1.00;1.00;;;17.60;60.70;;;;;;2282775;62;31047;-71
2022/03/08 19:53:48;;;;;;;0.88;0.70;;;17.60;60.70;;;;;;2275714;62;30167;-71
2022/03/08 19:56:15;;;;;;;1.13;0.90;;;17.60;60.60;;;;;;2275639;62;30160;-70
2022/03/08 19:58:40;;;;;;;0.90;0.90;;;17.60;60.60;;;;;;2267367;62;30280;-71
2022/03/08 20:01:06;;;;;;;1.00;1.00;;;17.60;60.70;;;;;;2275016;62;30698;-71
2022/03/08 20:03:35;;;;;;;0.80;0.80;;;17.60;60.60;;;;;;2274508;62;30180;-70
2022/03/08 20:06:02;;;;;;;1.42;0.88;;;17.70;60.70;;;;;;2268153;62;30695;-69
2022/03/08 20:08:28;;;;;;;1.85;1.00;;;17.70;60.70;;;;;;2274796;62;30278;-69
2022/03/08 20:10:54;;;;;;;0.77;0.77;;;17.70;60.60;;;;;;2279484;62;30893;-69
2022/03/08 20:13:21;;;;;;;0.90;0.60;;;17.70;60.60;;;;;;2273939;62;30219;-69
2022/03/08 20:15:47;;;;;;;0.90;0.90;;;17.70;60.60;;;;;;2274084;62;30160;-69
2022/03/08 20:18:13;;;;;;;0.98;0.95;;;17.70;60.50;;;;;;2274508;62;30284;-69
2022/03/08 20:20:39;;;;;;;0.90;0.90;;;17.70;60.60;;;;;;2274540;62;30596;-68
2022/03/08 20:23:06;;;;;;;0.82;0.82;;;17.70;60.60;;;;;;2273953;62;30525;-69
2022/03/08 20:25:31;;;;;;;0.98;0.95;;;17.60;60.70;;;;;;2274858;62;30479;-69
2022/03/08 20:27:57;;;;;;;1.02;0.98;;;17.50;60.60;;;;;;2267749;62;30144;-69
2022/03/08 20:30:25;;;;;;;1.95;1.00;;;17.50;60.70;;;;;;2276431;62;30818;-69
2022/03/08 20:32:51;;;;;;;1.00;0.98;;;17.50;60.80;;;;;;2274959;62;30399;-68
2022/03/08 20:35:17;;;;;;;0.93;0.93;;;17.50;60.90;;;;;;2274745;62;30360;-68
2022/03/08 20:37:43;;;;;;;1.50;1.10;;;17.40;60.70;;;;;;2274691;62;30349;-69
2022/03/08 20:40:09;;;;;;;1.13;0.90;;;17.40;60.90;;;;;;2283142;62;30010;-69
2022/03/08 20:42:35;;;;;;;1.05;1.05;;;17.50;61.00;;;;;;2276754;62;30232;-69
2022/03/08 20:45:01;;;;;;;1.30;1.08;;;17.50;60.90;;;;;;2276698;62;30735;-68
2022/03/08 20:47:27;;;;;;;0.85;0.85;;;17.50;61.10;;;;;;2276958;62;30463;-68
2022/03/08 20:49:53;;;;;;;1.65;1.10;;;17.40;61.00;;;;;;2283955;62;30615;-69
2022/03/08 20:52:18;;;;;;;1.05;0.90;;;17.30;60.90;;;;;;2283825;62;30475;-69
2022/03/08 20:54:44;;;;;;;1.80;1.10;;;17.30;61.20;;;;;;2280518;62;30913;-69
2022/03/08 20:57:10;;;;;;;1.00;1.00;;;17.30;61.30;;;;;;2268613;62;30099;-68
2022/03/08 20:59:36;;;;;;;1.50;1.05;;;17.30;61.20;;;;;;2275712;62;30230;-70
2022/03/08 21:02:03;;;;;;;0.90;0.90;;;17.30;61.50;;;;;;2275915;62;30127;-69
2022/03/08 21:04:29;;;;;;;1.05;1.00;;;17.40;61.50;;;;;;2275344;62;30055;-70
2022/03/08 21:06:54;;;;;;;1.17;1.00;;;17.40;61.40;;;;;;2275783;62;30533;-69
2022/03/08 21:09:21;;;;;;;1.05;0.90;;;17.40;61.30;;;;;;2275816;62;31638;-70
2022/03/08 21:11:47;;;;;;;1.50;1.02;;;17.40;61.30;;;;;;2275230;62;30265;-70
2022/03/08 21:14:12;;;;;;;1.20;1.10;;;17.40;61.30;;;;;;2276239;62;30535;-69
2022/03/08 21:16:38;;;;;;;1.13;1.10;;;17.40;61.50;;;;;;2283781;62;30136;-69
2022/03/08 21:19:04;;;;;;;3.78;1.10;;;17.40;61.30;;;;;;2269411;62;30572;-69
2022/03/08 21:21:31;;;;;;;1.15;1.05;;;17.40;61.40;;;;;;2284111;62;30610;-69
2022/03/08 21:23:57;;;;;;;1.00;1.00;;;17.40;61.40;;;;;;2284068;62;30096;-69
2022/03/08 21:26:23;;;;;;;1.40;0.80;;;17.40;61.50;;;;;;2276537;62;30782;-69
2022/03/08 21:28:49;;;;;;;2.47;1.00;;;17.40;61.60;;;;;;2269526;62;32072;-69
2022/03/08 21:31:17;;;;;;;1.00;0.82;;;17.40;61.60;;;;;;2283945;62;32076;-69
2022/03/08 21:33:43;;;;;;;0.95;0.95;;;17.40;61.60;;;;;;2281157;62;30187;-70
2022/03/08 21:36:09;;;;;;;1.10;1.00;;;17.40;61.50;;;;;;2274749;62;30414;-69
2022/03/08 21:38:35;;;;;;;0.90;0.90;;;17.40;61.60;;;;;;2275372;62;30793;-69
2022/03/08 21:41:01;;;;;;;1.08;0.98;;;17.40;61.60;;;;;;2275538;62;30254;-70
2022/03/08 21:43:27;;;;;;;1.25;1.15;;;17.40;61.60;;;;;;2268365;62;30728;-70
2022/03/08 21:45:53;;;;;;;1.00;0.90;;;17.50;61.60;;;;;;2270108;62;30425;-70
2022/03/08 21:48:19;;;;;;;1.15;1.00;;;17.50;61.60;;;;;;2275556;62;30115;-69
2022/03/08 21:50:45;;;;;;;0.85;0.85;;;17.50;61.70;;;;;;2275456;62;32136;-69
2022/03/08 21:53:14;;;;;;;0.93;0.93;;;17.50;61.70;;;;;;2275864;62;30186;-69
2022/03/08 21:55:41;;;;;;;0.82;0.82;;;17.50;61.70;;;;;;2275465;62;30011;-71
2022/03/08 21:58:06;;;;;;;1.15;1.00;;;17.50;61.70;;;;;;2275561;62;30723;-70
2022/03/08 22:00:32;;;;;;;0.80;0.80;;;17.50;61.60;;;;;;2275160;62;30486;-70
2022/03/08 22:02:58;;;;;;;0.88;0.88;;;17.50;61.70;;;;;;2277152;62;30212;-72
2022/03/08 22:05:25;;;;;;;0.90;0.90;;;17.50;61.70;;;;;;2279528;62;30554;-70
2022/03/08 22:07:51;;;;;;;0.90;0.90;;;17.50;61.70;;;;;;2275530;62;30967;-70
2022/03/08 22:10:17;;;;;;;1.30;1.20;;;17.40;61.60;;;;;;2275315;62;31364;-69
2022/03/08 22:12:43;;;;;;;0.80;0.80;;;17.40;61.70;;;;;;2275456;62;30475;-69
2022/03/08 22:15:09;;;;;;;2.30;1.20;;;17.40;61.70;;;;;;2277385;62;30702;-69
2022/03/08 22:17:35;;;;;;;0.88;0.88;;;17.40;61.80;;;;;;2283459;62;30063;-70
2022/03/08 22:20:01;;;;;;;2.35;0.93;;;17.30;61.80;;;;;;2276317;62;30489;-69
2022/03/08 22:22:27;;;;;;;1.20;1.10;;;17.40;62.00;;;;;;2283538;62;30073;-69
2022/03/08 22:24:54;;;;;;;1.20;1.10;;;17.40;61.90;;;;;;2283781;62;30166;-70
2022/03/08 22:27:21;;;;;;;0.82;0.82;;;17.40;61.90;;;;;;2280812;62;30849;-70
2022/03/08 22:29:47;;;;;;;1.08;0.95;;;17.40;62.00;;;;;;2275943;62;30614;-68
2022/03/08 22:32:16;;;;;;;1.02;1.00;;;17.40;62.00;;;;;;2283664;62;30163;-69
2022/03/08 22:34:42;;;;;;;0.75;0.75;;;17.40;62.70;;;;;;2276271;62;30377;-70
2022/03/08 22:37:08;;;;;;;1.05;0.95;;;17.40;62.00;;;;;;2283404;62;30719;-69
2022/03/08 22:39:34;;;;;;;1.20;1.10;;;17.40;61.90;;;;;;2269260;62;30565;-70
2022/03/08 22:42:00;;;;;;;1.33;0.90;;;17.40;61.90;;;;;;2276371;62;30090;-68
2022/03/08 22:44:26;;;;;;;1.00;1.00;;;17.40;61.90;;;;;;2283336;62;30409;-69
2022/03/08 22:46:52;;;;;;;0.80;0.80;;;17.40;62.00;;;;;;2276296;62;31950;-69
2022/03/08 22:49:18;;;;;;;0.95;0.95;;;17.40;61.80;;;;;;2277892;62;30113;-69
2022/03/08 22:51:49;;;;;;;2.03;1.10;;;17.30;61.90;;;;;;2267691;62;30438;-69
2022/03/08 22:54:20;;;;;;;1.23;1.13;;;17.30;61.90;;;;;;2275082;62;30137;-69
2022/03/08 22:56:46;;;;;;;1.50;0.90;;;17.30;62.00;;;;;;2274814;62;30079;-69
2022/03/08 22:59:12;;;;;;;1.05;0.98;;;17.30;62.00;;;;;;2275060;62;30726;-69
2022/03/08 23:01:42;;;;;;;0.88;0.88;;;17.30;62.10;;;;;;2268223;62;30575;-69
2022/03/08 23:04:08;;;;;;;0.88;0.88;;;17.30;62.00;;;;;;2274506;62;30212;-69
2022/03/08 23:06:34;;;;;;;1.27;0.85;;;17.30;62.10;;;;;;2274650;62;32154;-69
2022/03/08 23:09:00;;;;;;;1.15;1.15;;;17.30;62.10;;;;;;2275217;62;30206;-72
2022/03/08 23:11:26;;;;;;;3.05;0.88;;;17.40;62.00;;;;;;2267825;62;30255;-70
2022/03/08 23:13:52;;;;;;;0.90;0.90;;;17.30;62.10;;;;;;2275132;62;30717;-70
2022/03/08 23:16:18;;;;;;;0.90;0.90;;;17.30;62.20;;;;;;2271554;62;30980;-71
2022/03/08 23:18:47;;;;;;;1.00;1.00;;;17.40;62.30;;;;;;2283150;62;30709;-71
2022/03/08 23:21:15;;;;;;;2.72;1.02;;;17.40;62.30;;;;;;2283568;62;30039;-70
2022/03/08 23:23:41;;;;;;;3.80;1.30;;;17.40;62.20;;;;;;2283406;62;30193;-73
